createdAt,value
2018-04-15T00:01:02.991Z,60.80
2018-04-15T00:03:31.109Z,61.10
2018-04-15T00:05:59.245Z,61.40
2018-04-15T00:08:27.475Z,61.10
2018-04-15T00:10:55.578Z,61.10
2018-04-15T00:13:24.470Z,61.20
2018-04-15T00:15:53.361Z,61.20
2018-04-15T00:18:21.488Z,61.20
2018-04-15T00:20:49.596Z,61.40
2018-04-15T00:23:17.699Z,61.30
2018-04-15T00:25:45.811Z,61.10
2018-04-15T00:28:13.953Z,61.10
2018-04-15T00:30:42.060Z,61.40
2018-04-15T00:33:10.188Z,61.80
2018-04-15T00:35:38.295Z,61.70
2018-04-15T00:38:06.416Z,61.60
2018-04-15T00:40:34.522Z,61.40
2018-04-15T00:43:03.413Z,62.10
2018-04-15T00:45:31.518Z,62.00
2018-04-15T00:47:59.663Z,62.20
2018-04-15T00:50:27.784Z,62.30
2018-04-15T00:52:55.907Z,62.60
2018-04-15T00:55:24.071Z,62.80
2018-04-15T00:57:52.171Z,62.80
2018-04-15T01:00:21.063Z,63.40
2018-04-15T01:02:49.177Z,63.40
2018-04-15T01:05:17.305Z,63.70
2018-04-15T01:07:45.420Z,63.90
2018-04-15T01:10:13.548Z,63.80
2018-04-15T01:12:41.628Z,63.90
2018-04-15T01:15:09.729Z,64.10
2018-04-15T01:17:37.840Z,64.20
2018-04-15T01:20:06.757Z,64.10
2018-04-15T01:22:34.905Z,63.90
2018-04-15T01:25:03.059Z,64.30
2018-04-15T01:27:31.990Z,64.00
2018-04-15T01:30:00.857Z,63.10
2018-04-15T01:32:29.738Z,63.20
2018-04-15T01:34:57.831Z,63.10
2018-04-15T01:37:25.962Z,63.20
2018-04-15T01:39:54.066Z,63.10
2018-04-15T01:42:22.171Z,63.20
2018-04-15T01:44:50.299Z,63.60
2018-04-15T01:47:18.395Z,63.60
2018-04-15T01:49:46.503Z,63.50
2018-04-15T01:52:14.635Z,63.20
2018-04-15T01:54:42.791Z,63.10
2018-04-15T01:57:10.906Z,63.10
2018-04-15T01:59:39.794Z,64.40
2018-04-15T02:02:07.995Z,63.50
2018-04-15T02:04:36.880Z,63.70
2018-04-15T02:07:05.756Z,63.70
2018-04-15T02:09:33.867Z,63.70
2018-04-15T02:12:01.964Z,63.60
2018-04-15T02:14:30.079Z,63.40
2018-04-15T02:16:58.182Z,63.80
2018-04-15T02:19:26.347Z,65.10
2018-04-15T02:21:54.472Z,64.10
2018-04-15T02:24:22.579Z,64.40
2018-04-15T02:26:50.705Z,64.60
2018-04-15T02:29:18.818Z,64.30
2018-04-15T02:31:46.945Z,63.90
2018-04-15T02:34:15.839Z,63.60
2018-04-15T02:36:44.724Z,63.80
2018-04-15T02:39:12.867Z,63.80
2018-04-15T02:41:40.992Z,64.00
2018-04-15T02:44:09.859Z,63.70
2018-04-15T02:46:38.024Z,63.70
2018-04-15T02:49:06.131Z,63.50
2018-04-15T02:51:35.040Z,63.30
2018-04-15T02:54:03.906Z,63.50
2018-04-15T02:56:32.049Z,63.50
2018-04-15T02:59:00.173Z,63.30
2018-04-15T03:01:29.059Z,63.50
2018-04-15T03:03:57.199Z,63.50
2018-04-15T03:06:25.313Z,63.40
2018-04-15T03:08:53.429Z,63.40
2018-04-15T03:11:21.564Z,63.40
2018-04-15T03:13:49.692Z,63.80
2018-04-15T03:16:17.925Z,63.80
2018-04-15T03:18:46.081Z,64.20
2018-04-15T03:21:14.184Z,64.60
2018-04-15T03:23:42.317Z,64.40
2018-04-15T03:26:10.435Z,64.80
2018-04-15T03:28:38.563Z,65.10
2018-04-15T03:31:06.679Z,65.00
2018-04-15T03:33:34.850Z,65.10
2018-04-15T03:36:02.938Z,65.10
2018-04-15T03:38:31.051Z,65.30
2018-04-15T03:40:59.167Z,65.40
2018-04-15T03:43:27.299Z,65.30
2018-04-15T03:45:55.452Z,65.30
2018-04-15T03:48:23.559Z,65.30
2018-04-15T03:50:51.668Z,65.70
2018-04-15T03:53:19.780Z,65.80
2018-04-15T03:55:47.891Z,66.10
2018-04-15T03:58:16.053Z,66.50
2018-04-15T04:00:44.171Z,66.90
2018-04-15T04:03:12.305Z,67.20
2018-04-15T04:05:41.212Z,68.00
2018-04-15T04:08:09.595Z,67.90
2018-04-15T04:10:38.466Z,68.00
2018-04-15T04:13:06.596Z,68.00
2018-04-15T04:15:34.701Z,68.30
2018-04-15T04:18:15.009Z,68.30
2018-04-15T04:20:54.975Z,69.20
2018-04-15T04:23:34.991Z,68.40
2018-04-15T04:26:04.937Z,68.20
2018-04-15T04:28:33.042Z,68.30
2018-04-15T04:31:01.222Z,68.40
2018-04-15T04:33:29.537Z,68.50
2018-04-15T04:35:58.407Z,68.70
2018-04-15T04:38:26.560Z,68.70
2018-04-15T04:40:54.659Z,68.80
2018-04-15T04:43:22.785Z,69.00
2018-04-15T04:45:51.740Z,68.90
2018-04-15T04:48:19.954Z,68.90
2018-04-15T04:50:48.075Z,68.70
2018-04-15T04:53:16.180Z,68.70
2018-04-15T04:55:44.297Z,68.90
2018-04-15T04:58:12.475Z,68.80
2018-04-15T05:00:40.588Z,69.00
2018-04-15T05:03:08.985Z,68.90
2018-04-15T05:05:37.185Z,68.90
2018-04-15T05:08:06.085Z,68.70
2018-04-15T05:10:35.016Z,68.80
2018-04-15T05:13:03.164Z,68.80
2018-04-15T05:15:31.305Z,69.30
2018-04-15T05:17:59.677Z,69.60
2018-04-15T05:20:27.783Z,69.80
2018-04-15T05:22:55.900Z,69.60
2018-04-15T05:25:24.011Z,69.80
2018-04-15T05:27:52.151Z,69.90
2018-04-15T05:30:20.298Z,70.20
2018-04-15T05:32:49.171Z,70.50
2018-04-15T05:35:17.278Z,70.50
2018-04-15T05:37:45.430Z,70.60
2018-04-15T05:40:13.507Z,70.60
2018-04-15T05:42:41.679Z,70.80
2018-04-15T05:45:09.899Z,71.10
2018-04-15T05:47:38.767Z,71.00
2018-04-15T05:50:06.867Z,71.10
2018-04-15T05:52:35.008Z,71.20
2018-04-15T05:55:03.321Z,70.90
2018-04-15T05:57:32.194Z,70.60
2018-04-15T06:00:00.320Z,70.60
2018-04-15T06:02:36.141Z,70.60
2018-04-15T06:05:05.183Z,70.80
2018-04-15T06:07:33.456Z,70.80
2018-04-15T06:10:02.193Z,70.90
2018-04-15T06:12:31.031Z,71.10
2018-04-15T06:14:59.612Z,72.10
2018-04-15T06:17:27.724Z,71.30
2018-04-15T06:19:55.855Z,71.00
2018-04-15T06:22:23.963Z,70.70
2018-04-15T06:24:52.080Z,70.50
2018-04-15T06:27:20.236Z,70.50
2018-04-15T06:29:48.385Z,70.70
2018-04-15T06:32:16.839Z,70.70
2018-04-15T06:34:44.977Z,70.80
2018-04-15T06:37:13.051Z,70.90
2018-04-15T06:39:41.258Z,71.00
2018-04-15T06:42:09.462Z,71.20
2018-04-15T06:44:37.647Z,71.20
2018-04-15T06:47:05.852Z,71.20
2018-04-15T06:49:35.239Z,71.60
2018-04-15T06:52:03.738Z,71.50
2018-04-15T06:54:33.331Z,71.60
2018-04-15T06:57:02.363Z,71.40
2018-04-15T06:59:30.557Z,71.40
2018-04-15T07:01:58.687Z,71.60
2018-04-15T07:04:26.809Z,71.80
2018-04-15T07:06:54.931Z,72.10
2018-04-15T07:09:23.057Z,71.80
2018-04-15T07:11:51.171Z,71.80
2018-04-15T07:14:19.319Z,71.90
2018-04-15T07:16:47.437Z,71.70
2018-04-15T07:19:15.552Z,71.80
2018-04-15T07:21:43.750Z,71.90
2018-04-15T07:24:11.819Z,71.80
2018-04-15T07:26:39.941Z,71.90
2018-04-15T07:29:08.079Z,72.10
2018-04-15T07:31:36.237Z,72.10
2018-04-15T07:34:04.346Z,72.30
2018-04-15T07:36:32.580Z,72.40
2018-04-15T07:39:00.671Z,72.60
2018-04-15T07:41:28.773Z,72.40
2018-04-15T07:43:56.920Z,72.30
2018-04-15T07:46:25.235Z,72.20
2018-04-15T07:48:53.335Z,72.80
2018-04-15T07:51:21.445Z,73.30
2018-04-15T07:53:49.639Z,73.50
2018-04-15T07:56:17.800Z,73.50
2018-04-15T07:58:46.645Z,73.70
2018-04-15T08:01:15.539Z,73.70
2018-04-15T08:03:43.697Z,73.70
2018-04-15T08:06:11.813Z,73.80
2018-04-15T08:08:40.239Z,74.00
2018-04-15T08:11:08.371Z,74.10
2018-04-15T08:13:36.467Z,74.00
2018-04-15T08:16:04.700Z,74.10
2018-04-15T08:18:32.936Z,74.20
2018-04-15T08:21:01.084Z,74.10
2018-04-15T08:23:29.865Z,74.20
2018-04-15T08:25:58.015Z,74.20
2018-04-15T08:28:26.128Z,74.00
2018-04-15T08:30:54.251Z,74.00
2018-04-15T08:33:22.433Z,74.00
2018-04-15T08:35:50.547Z,74.10
2018-04-15T08:38:19.431Z,74.60
2018-04-15T08:40:47.634Z,74.60
2018-04-15T08:43:15.742Z,74.70
2018-04-15T08:45:44.756Z,74.50
2018-04-15T08:48:12.974Z,74.60
2018-04-15T08:50:41.865Z,74.50
2018-04-15T08:53:10.009Z,74.50
2018-04-15T08:55:38.364Z,74.20
2018-04-15T08:58:07.149Z,74.30
2018-04-15T09:00:35.428Z,74.60
2018-04-15T09:03:03.539Z,74.70
2018-04-15T09:05:31.725Z,74.90
2018-04-15T09:07:59.834Z,75.40
2018-04-15T09:10:27.947Z,75.40
2018-04-15T09:12:56.227Z,75.70
2018-04-15T09:15:24.352Z,75.80
2018-04-15T09:17:52.467Z,76.30
2018-04-15T09:20:20.661Z,76.90
2018-04-15T09:22:49.503Z,77.00
2018-04-15T09:25:17.683Z,77.00
2018-04-15T09:27:45.863Z,77.00
2018-04-15T09:30:14.089Z,77.10
2018-04-15T09:32:42.929Z,77.10
2018-04-15T09:35:11.122Z,76.70
2018-04-15T09:37:39.300Z,76.60
2018-04-15T09:40:08.180Z,76.40
2018-04-15T09:42:36.322Z,76.40
2018-04-15T09:45:04.967Z,76.40
2018-04-15T09:47:33.138Z,76.90
2018-04-15T09:50:02.076Z,76.90
2018-04-15T09:52:30.374Z,76.80
2018-04-15T09:55:03.627Z,76.70
2018-04-15T09:57:31.771Z,76.50
2018-04-15T09:59:59.965Z,76.60
2018-04-15T10:02:28.899Z,76.50
2018-04-15T10:04:57.063Z,76.50
2018-04-15T10:07:25.435Z,76.70
2018-04-15T10:09:53.594Z,76.60
2018-04-15T10:12:22.477Z,76.90
2018-04-15T10:14:50.682Z,76.40
2018-04-15T10:17:18.795Z,76.10
2018-04-15T10:19:47.023Z,76.00
2018-04-15T10:22:15.925Z,76.00
2018-04-15T10:24:44.953Z,76.60
2018-04-15T10:27:13.547Z,76.50
2018-04-15T10:29:41.703Z,76.90
2018-04-15T10:32:09.944Z,76.80
2018-04-15T10:34:38.079Z,76.60
2018-04-15T10:37:06.361Z,76.30
2018-04-15T10:39:34.680Z,75.90
2018-04-15T10:42:02.796Z,75.70
2018-04-15T10:44:31.780Z,75.40
2018-04-15T10:46:59.902Z,75.40
2018-04-15T10:49:28.011Z,75.60
2018-04-15T10:51:56.117Z,75.70
2018-04-15T10:54:24.865Z,75.50
2018-04-15T10:56:52.971Z,75.30
2018-04-15T10:59:21.871Z,74.50
2018-04-15T11:01:50.484Z,74.50
2018-04-15T11:04:18.615Z,74.40
2018-04-15T11:06:46.735Z,74.20
2018-04-15T11:09:14.927Z,74.00
2018-04-15T11:11:47.071Z,73.70
2018-04-15T11:14:15.279Z,73.30
2018-04-15T11:16:43.486Z,73.10
2018-04-15T11:19:11.648Z,72.90
2018-04-15T11:21:40.681Z,72.00
2018-04-15T11:24:09.430Z,72.00
2018-04-15T11:26:37.850Z,72.30
2018-04-15T11:29:06.183Z,71.50
2018-04-15T11:31:35.640Z,71.30
2018-04-15T11:34:03.868Z,72.00
2018-04-15T11:36:32.236Z,71.00
2018-04-15T11:39:00.762Z,70.70
2018-04-15T11:41:29.699Z,70.60
2018-04-15T11:43:57.873Z,70.60
2018-04-15T11:46:26.103Z,70.60
2018-04-15T11:48:54.210Z,70.60
2018-04-15T11:51:22.403Z,70.60
2018-04-15T11:53:51.071Z,70.50
2018-04-15T11:56:19.275Z,70.20
2018-04-15T11:58:47.511Z,69.90
2018-04-15T12:01:15.839Z,69.90
2018-04-15T12:03:43.962Z,69.80
2018-04-15T12:06:12.352Z,69.40
2018-04-15T12:08:40.571Z,69.00
2018-04-15T12:11:08.668Z,69.10
2018-04-15T12:13:37.539Z,69.00
2018-04-15T12:16:05.644Z,68.90
2018-04-15T12:18:33.767Z,69.00
2018-04-15T12:21:02.202Z,68.70
2018-04-15T12:23:30.329Z,68.50
2018-04-15T12:25:58.526Z,68.50
2018-04-15T12:28:26.950Z,68.30
2018-04-15T12:30:55.972Z,68.10
2018-04-15T12:33:24.416Z,68.10
2018-04-15T12:35:53.127Z,67.90
2018-04-15T12:38:21.593Z,67.70
2018-04-15T12:40:50.599Z,67.20
2018-04-15T12:43:19.688Z,67.10
2018-04-15T12:45:47.831Z,67.10
2018-04-15T12:48:15.932Z,66.90
2018-04-15T12:50:44.027Z,66.80
2018-04-15T12:53:12.986Z,66.60
2018-04-15T12:55:41.111Z,66.50
2018-04-15T12:58:09.240Z,66.50
2018-04-15T13:00:37.430Z,66.40
2018-04-15T13:03:05.615Z,66.20
2018-04-15T13:05:33.730Z,66.20
2018-04-15T13:08:01.844Z,66.90
2018-04-15T13:10:29.951Z,66.20
2018-04-15T13:12:58.075Z,66.50
2018-04-15T13:15:26.194Z,66.70
2018-04-15T13:17:54.300Z,67.00
2018-04-15T13:20:22.431Z,67.00
2018-04-15T13:22:50.536Z,66.80
2018-04-15T13:25:18.647Z,66.70
2018-04-15T13:27:46.812Z,66.80
2018-04-15T13:30:15.168Z,67.00
2018-04-15T13:32:43.680Z,67.20
2018-04-15T13:35:11.959Z,67.40
2018-04-15T13:37:40.123Z,67.40
2018-04-15T13:40:09.152Z,67.50
2018-04-15T13:42:37.249Z,67.50
2018-04-15T13:45:05.392Z,67.50
2018-04-15T13:47:33.495Z,67.60
2018-04-15T13:50:04.290Z,67.30
2018-04-15T13:52:33.460Z,67.50
2018-04-15T13:55:01.551Z,67.30
2018-04-15T13:57:29.652Z,67.30
2018-04-15T13:59:58.551Z,67.10
2018-04-15T14:02:27.488Z,66.90
2018-04-15T14:04:55.567Z,66.80
2018-04-15T14:07:23.700Z,66.70
2018-04-15T14:09:52.551Z,66.60
2018-04-15T14:12:20.690Z,66.50
2018-04-15T14:14:49.969Z,66.50
2018-04-15T14:17:19.111Z,66.40
2018-04-15T14:19:49.795Z,66.40
2018-04-15T14:22:19.160Z,66.30
2018-04-15T14:24:49.226Z,66.40
2018-04-15T14:27:18.403Z,66.30
2018-04-15T14:29:46.612Z,66.40
2018-04-15T14:32:14.809Z,66.20
2018-04-15T14:34:42.927Z,66.30
2018-04-15T14:37:11.127Z,65.60
2018-04-15T14:39:39.493Z,65.60
2018-04-15T14:42:08.134Z,65.90
2018-04-15T14:44:36.255Z,65.70
2018-04-15T14:47:04.360Z,65.70
2018-04-15T14:49:33.280Z,65.60
2018-04-15T14:52:01.388Z,66.30
2018-04-15T14:54:29.565Z,65.20
2018-04-15T14:56:57.860Z,65.30
2018-04-15T14:59:25.962Z,65.30
2018-04-15T15:01:55.244Z,65.30
2018-04-15T15:04:23.399Z,65.30
2018-04-15T15:06:51.508Z,65.90
2018-04-15T15:09:19.787Z,65.10
2018-04-15T15:11:47.877Z,65.00
2018-04-15T15:14:16.802Z,65.30
2018-04-15T15:16:44.898Z,64.90
2018-04-15T15:19:13.052Z,64.50
2018-04-15T15:21:48.487Z,64.40
2018-04-15T15:24:16.611Z,64.00
2018-04-15T15:26:45.428Z,63.50
2018-04-15T15:29:13.525Z,63.10
2018-04-15T15:31:42.547Z,63.20
2018-04-15T15:34:10.721Z,63.10
2018-04-15T15:36:39.075Z,63.40
2018-04-15T15:39:07.272Z,63.50
2018-04-15T15:41:36.136Z,63.50
2018-04-15T15:44:04.284Z,63.50
2018-04-15T15:46:32.391Z,63.60
2018-04-15T15:49:00.497Z,63.60
2018-04-15T15:51:29.399Z,62.70
2018-04-15T15:53:58.246Z,62.70
2018-04-15T15:56:26.364Z,62.70
2018-04-15T15:58:54.531Z,63.10
2018-04-15T16:01:22.675Z,63.30
2018-04-15T16:03:50.800Z,63.40
2018-04-15T16:06:18.911Z,63.40
2018-04-15T16:08:47.072Z,63.30
2018-04-15T16:11:15.215Z,63.10
2018-04-15T16:13:44.093Z,62.50
2018-04-15T16:16:12.222Z,62.30
2018-04-15T16:18:40.351Z,62.40
2018-04-15T16:21:08.448Z,62.40
2018-04-15T16:23:36.551Z,61.50
2018-04-15T16:26:04.672Z,61.70
2018-04-15T16:28:32.877Z,61.80
2018-04-15T16:31:01.676Z,61.90
2018-04-15T16:33:29.927Z,62.00
2018-04-15T16:35:58.187Z,62.10
2018-04-15T16:38:26.536Z,61.90
2018-04-15T16:40:54.651Z,62.00
2018-04-15T16:43:22.766Z,62.00
2018-04-15T16:45:51.700Z,61.70
2018-04-15T16:48:19.779Z,61.70
2018-04-15T16:50:47.912Z,61.70
2018-04-15T16:53:16.782Z,62.40
2018-04-15T16:55:45.013Z,61.70
2018-04-15T16:58:13.140Z,61.90
2018-04-15T17:00:41.286Z,61.40
2018-04-15T17:03:09.528Z,61.50
2018-04-15T17:05:39.250Z,61.70
2018-04-15T17:08:08.150Z,61.60
2018-04-15T17:10:37.040Z,61.60
2018-04-15T17:13:05.176Z,61.60
2018-04-15T17:15:33.298Z,61.70
2018-04-15T17:18:01.404Z,61.40
2018-04-15T17:20:29.758Z,61.50
2018-04-15T17:22:58.032Z,61.40
2018-04-15T17:25:26.241Z,61.40
2018-04-15T17:27:54.588Z,61.20
2018-04-15T17:30:23.830Z,61.20
2018-04-15T17:32:51.979Z,61.20
2018-04-15T17:35:20.112Z,61.80
2018-04-15T17:37:48.225Z,60.90
2018-04-15T17:40:16.476Z,61.10
2018-04-15T17:42:45.031Z,61.20
2018-04-15T17:45:13.116Z,61.10
2018-04-15T17:47:41.309Z,61.30
2018-04-15T17:50:09.411Z,61.40
2018-04-15T17:52:37.536Z,61.60
2018-04-15T17:55:05.679Z,61.50
2018-04-15T17:57:33.811Z,61.50
2018-04-15T18:00:02.025Z,61.70
2018-04-15T18:02:30.901Z,62.00
2018-04-15T18:04:59.012Z,62.00
2018-04-15T18:07:27.152Z,62.10
2018-04-15T18:09:56.043Z,62.80
2018-04-15T18:12:24.200Z,62.20
2018-04-15T18:14:52.320Z,62.40
2018-04-15T18:17:22.423Z,62.40
2018-04-15T18:19:50.620Z,62.60
2018-04-15T18:22:18.842Z,62.70
2018-04-15T18:24:47.048Z,62.80
2018-04-15T18:27:15.159Z,63.10
2018-04-15T18:29:43.281Z,63.20
2018-04-15T18:32:11.414Z,63.30
2018-04-15T18:34:39.519Z,63.40
2018-04-15T18:37:07.677Z,63.50
2018-04-15T18:39:35.803Z,63.50
2018-04-15T18:42:03.928Z,63.70
2018-04-15T18:44:32.069Z,63.70
2018-04-15T18:47:00.242Z,63.90
2018-04-15T18:49:42.461Z,64.00
2018-04-15T18:52:11.343Z,64.10
2018-04-15T18:54:39.463Z,64.10
2018-04-15T18:57:07.572Z,64.10
2018-04-15T18:59:35.703Z,64.20
2018-04-15T19:02:03.828Z,64.30
2018-04-15T19:04:32.098Z,64.30
2018-04-15T19:07:00.260Z,64.20
2018-04-15T19:09:28.367Z,64.40
2018-04-15T19:11:56.491Z,64.70
2018-04-15T19:14:24.588Z,64.60
2018-04-15T19:16:52.772Z,64.50
2018-04-15T19:19:21.162Z,64.50
2018-04-15T19:21:49.498Z,64.30
2018-04-15T19:24:18.528Z,64.60
2018-04-15T19:26:47.527Z,64.60
2018-04-15T19:29:15.604Z,64.50
2018-04-15T19:31:43.752Z,64.60
2018-04-15T19:34:12.659Z,64.60
2018-04-15T19:36:40.764Z,64.60
2018-04-15T19:39:08.884Z,64.60
2018-04-15T19:41:37.075Z,64.60
2018-04-15T19:44:05.958Z,64.80
2018-04-15T19:46:34.906Z,65.00
2018-04-15T19:49:03.004Z,65.00
2018-04-15T19:51:31.108Z,64.90
2018-04-15T19:53:59.287Z,64.80
2018-04-15T19:56:27.455Z,64.80
2018-04-15T19:58:55.662Z,64.70
2018-04-15T20:01:24.532Z,64.70
2018-04-15T20:03:53.527Z,65.20
2018-04-15T20:06:21.629Z,64.70
2018-04-15T20:08:52.005Z,65.00
2018-04-15T20:11:20.158Z,65.00
2018-04-15T20:13:48.276Z,65.00
2018-04-15T20:16:16.389Z,64.80
2018-04-15T20:18:45.291Z,65.00
2018-04-15T20:21:13.375Z,65.00
2018-04-15T20:23:41.511Z,64.90
2018-04-15T20:26:09.644Z,64.80
2018-04-15T20:28:37.772Z,64.70
2018-04-15T20:31:06.676Z,64.80
2018-04-15T20:33:35.552Z,64.70
2018-04-15T20:36:03.667Z,64.70
2018-04-15T20:38:31.807Z,64.60
2018-04-15T20:40:59.915Z,64.50
2018-04-15T20:43:28.091Z,64.50
2018-04-15T20:45:56.158Z,64.40
2018-04-15T20:48:25.051Z,64.30
2018-04-15T20:50:53.172Z,64.30
2018-04-15T20:53:21.288Z,64.30
2018-04-15T20:55:49.404Z,64.40
2018-04-15T20:58:17.518Z,64.30
2018-04-15T21:00:45.629Z,64.60
2018-04-15T21:03:13.756Z,64.50
2018-04-15T21:05:41.869Z,64.40
2018-04-15T21:08:10.000Z,64.30
2018-04-15T21:10:38.126Z,64.30
2018-04-15T21:13:06.236Z,64.30
2018-04-15T21:15:34.359Z,63.70
2018-04-15T21:18:02.487Z,64.20
2018-04-15T21:20:30.617Z,64.10
2018-04-15T21:22:58.756Z,64.10
2018-04-15T21:25:26.919Z,64.10
2018-04-15T21:27:55.051Z,64.20
2018-04-15T21:30:23.164Z,64.20
2018-04-15T21:32:52.176Z,64.80
2018-04-15T21:35:21.040Z,64.20
2018-04-15T21:37:49.969Z,64.20
2018-04-15T21:40:18.383Z,64.20
2018-04-15T21:42:46.491Z,64.20
2018-04-15T21:45:14.807Z,64.10
2018-04-15T21:47:43.148Z,64.20
2018-04-15T21:50:11.260Z,64.20
2018-04-15T21:52:39.548Z,64.40
2018-04-15T21:55:07.679Z,64.30
2018-04-15T21:57:35.776Z,64.30
2018-04-15T22:00:03.911Z,64.20
2018-04-15T22:02:32.067Z,64.20
2018-04-15T22:05:00.182Z,64.30
2018-04-15T22:07:28.279Z,64.20
2018-04-15T22:09:56.400Z,64.20
2018-04-15T22:12:24.827Z,64.60
2018-04-15T22:14:53.004Z,64.80
2018-04-15T22:17:21.119Z,64.60
2018-04-15T22:19:49.235Z,64.50
2018-04-15T22:22:17.690Z,64.50
2018-04-15T22:24:45.811Z,64.40
2018-04-15T22:27:13.947Z,64.40
2018-04-15T22:29:42.053Z,64.50
2018-04-15T22:32:10.222Z,64.70
2018-04-15T22:34:38.289Z,64.70
2018-04-15T22:37:06.415Z,64.70
2018-04-15T22:39:34.537Z,64.70
2018-04-15T22:42:02.656Z,64.60
2018-04-15T22:44:30.759Z,64.60
2018-04-15T22:46:59.631Z,65.10
2018-04-15T22:49:27.737Z,65.00
2018-04-15T22:51:55.893Z,65.10
2018-04-15T22:54:24.044Z,64.90
2018-04-15T22:56:52.145Z,64.90
2018-04-15T22:59:20.287Z,64.90
2018-04-15T23:01:49.159Z,64.90
2018-04-15T23:04:17.279Z,64.80
2018-04-15T23:06:45.411Z,65.00
2018-04-15T23:09:13.540Z,65.00
2018-04-15T23:11:41.664Z,65.00
2018-04-15T23:14:09.775Z,65.10
2018-04-15T23:16:37.904Z,65.00
2018-04-15T23:19:06.024Z,65.00
2018-04-15T23:21:34.127Z,65.00
2018-04-15T23:24:02.233Z,65.60
2018-04-15T23:26:30.375Z,64.90
2018-04-15T23:28:58.487Z,64.80
2018-04-15T23:31:26.613Z,64.90
2018-04-15T23:33:54.721Z,64.90
2018-04-15T23:36:22.823Z,65.00
2018-04-15T23:38:50.994Z,64.90
2018-04-15T23:41:19.105Z,64.90
2018-04-15T23:43:47.224Z,64.90
2018-04-15T23:46:15.327Z,64.90
2018-04-15T23:48:43.467Z,64.80
2018-04-15T23:51:11.607Z,64.80
2018-04-15T23:53:39.730Z,64.80
2018-04-15T23:56:07.871Z,64.70
2018-04-15T23:58:35.984Z,64.80
